sensor_id;sensor_type;location;lat;lon;timestamp;pressure;altitude;pressure_sealevel;temperature;humidity
56074;BME280;41950;55.840;37.442;2022-12-18T00:01:13;99131.53;;;-4.43;89.51
56074;BME280;41950;55.840;37.442;2022-12-18T00:03:39;99151.47;;;-4.28;89.79
56074;BME280;41950;55.840;37.442;2022-12-18T00:06:05;99142.53;;;-4.42;89.56
56074;BME280;41950;55.840;37.442;2022-12-18T00:08:31;99131.50;;;-4.44;89.76
56074;BME280;41950;55.840;37.442;2022-12-18T00:11:04;99163.53;;;-4.21;89.98
56074;BME280;41950;55.840;37.442;2022-12-18T00:13:30;99133.53;;;-4.34;89.80
56074;BME280;41950;55.840;37.442;2022-12-18T00:15:55;99138.19;;;-4.21;89.80
56074;BME280;41950;55.840;37.442;2022-12-18T00:18:21;99107.19;;;-4.39;89.53
56074;BME280;41950;55.840;37.442;2022-12-18T00:20:46;99091.59;;;-4.51;89.06
56074;BME280;41950;55.840;37.442;2022-12-18T00:23:12;99114.94;;;-4.34;89.21
56074;BME280;41950;55.840;37.442;2022-12-18T00:25:38;99103.97;;;-4.35;89.31
56074;BME280;41950;55.840;37.442;2022-12-18T00:28:03;99140.81;;;-4.18;89.27
56074;BME280;41950;55.840;37.442;2022-12-18T00:30:29;99081.66;;;-4.45;89.32
56074;BME280;41950;55.840;37.442;2022-12-18T00:32:55;99074.00;;;-4.47;89.42
56074;BME280;41950;55.840;37.442;2022-12-18T00:35:21;99123.97;;;-4.16;89.36
56074;BME280;41950;55.840;37.442;2022-12-18T00:37:46;99105.88;;;-4.28;89.57
56074;BME280;41950;55.840;37.442;2022-12-18T00:40:12;99112.03;;;-4.20;89.13
56074;BME280;41950;55.840;37.442;2022-12-18T00:42:38;99072.56;;;-4.39;89.08
56074;BME280;41950;55.840;37.442;2022-12-18T00:45:26;99107.78;;;-4.21;89.40
56074;BME280;41950;55.840;37.442;2022-12-18T00:47:52;99106.06;;;-4.22;89.51
56074;BME280;41950;55.840;37.442;2022-12-18T00:50:18;99097.50;;;-4.25;89.21
56074;BME280;41950;55.840;37.442;2022-12-18T00:52:44;99074.47;;;-4.33;89.29
56074;BME280;41950;55.840;37.442;2022-12-18T00:55:10;99096.94;;;-4.17;89.32
56074;BME280;41950;55.840;37.442;2022-12-18T00:57:36;99082.44;;;-4.21;89.03
56074;BME280;41950;55.840;37.442;2022-12-18T01:00:04;99075.56;;;-4.25;88.97
56074;BME280;41950;55.840;37.442;2022-12-18T01:02:30;99080.03;;;-4.16;89.03
56074;BME280;41950;55.840;37.442;2022-12-18T01:04:55;99080.94;;;-4.14;88.81
56074;BME280;41950;55.840;37.442;2022-12-18T01:07:21;99051.81;;;-4.28;89.04
56074;BME280;41950;55.840;37.442;2022-12-18T01:09:46;99054.44;;;-4.25;88.26
56074;BME280;41950;55.840;37.442;2022-12-18T01:12:12;99075.03;;;-4.15;88.34
56074;BME280;41950;55.840;37.442;2022-12-18T01:14:38;99039.91;;;-4.31;88.28
56074;BME280;41950;55.840;37.442;2022-12-18T01:17:03;99071.63;;;-4.15;87.89
56074;BME280;41950;55.840;37.442;2022-12-18T01:19:32;99041.50;;;-4.34;88.32
56074;BME280;41950;55.840;37.442;2022-12-18T01:21:57;99013.09;;;-4.51;88.24
56074;BME280;41950;55.840;37.442;2022-12-18T01:24:23;99050.03;;;-4.31;88.66
56074;BME280;41950;55.840;37.442;2022-12-18T01:26:48;99031.28;;;-4.38;88.69
56074;BME280;41950;55.840;37.442;2022-12-18T01:29:14;99033.03;;;-4.35;88.39
56074;BME280;41950;55.840;37.442;2022-12-18T01:31:40;99012.38;;;-4.47;88.18
56074;BME280;41950;55.840;37.442;2022-12-18T01:34:06;98996.94;;;-4.55;88.66
56074;BME280;41950;55.840;37.442;2022-12-18T01:36:33;99056.19;;;-4.23;88.72
56074;BME280;41950;55.840;37.442;2022-12-18T01:39:05;99073.06;;;-4.23;88.04
56074;BME280;41950;55.840;37.442;2022-12-18T01:41:32;99040.63;;;-4.35;88.10
56074;BME280;41950;55.840;37.442;2022-12-18T01:48:00;99051.81;;;-4.28;87.78
56074;BME280;41950;55.840;37.442;2022-12-18T01:50:34;99052.56;;;-4.31;87.55
56074;BME280;41950;55.840;37.442;2022-12-18T01:53:14;99018.88;;;-4.55;87.95
56074;BME280;41950;55.840;37.442;2022-12-18T01:55:45;99022.31;;;-4.53;87.92
56074;BME280;41950;55.840;37.442;2022-12-18T01:58:12;99020.88;;;-4.45;88.38
56074;BME280;41950;55.840;37.442;2022-12-18T02:00:38;99043.81;;;-4.41;87.90
56074;BME280;41950;55.840;37.442;2022-12-18T02:03:03;99051.75;;;-4.30;87.71
56074;BME280;41950;55.840;37.442;2022-12-18T02:08:27;99041.41;;;-4.38;87.38
56074;BME280;41950;55.840;37.442;2022-12-18T02:11:10;99042.75;;;-4.47;87.40
56074;BME280;41950;55.840;37.442;2022-12-18T02:14:36;99054.56;;;-4.48;87.43
56074;BME280;41950;55.840;37.442;2022-12-18T02:17:10;99055.31;;;-4.50;88.22
56074;BME280;41950;55.840;37.442;2022-12-18T02:20:13;99059.25;;;-4.60;87.35
56074;BME280;41950;55.840;37.442;2022-12-18T02:28:00;99069.53;;;-4.55;88.42
56074;BME280;41950;55.840;37.442;2022-12-18T02:30:31;99035.19;;;-4.73;88.52
56074;BME280;41950;55.840;37.442;2022-12-18T02:32:58;99029.25;;;-4.73;88.63
56074;BME280;41950;55.840;37.442;2022-12-18T02:35:29;99019.94;;;-4.74;87.22
56074;BME280;41950;55.840;37.442;2022-12-18T02:37:55;99052.75;;;-4.52;87.62
56074;BME280;41950;55.840;37.442;2022-12-18T02:40:24;99054.50;;;-4.49;87.88
56074;BME280;41950;55.840;37.442;2022-12-18T02:42:51;98998.63;;;-4.81;87.89
56074;BME280;41950;55.840;37.442;2022-12-18T02:45:17;99041.75;;;-4.52;87.73
56074;BME280;41950;55.840;37.442;2022-12-18T02:47:46;99033.94;;;-4.60;87.17
56074;BME280;41950;55.840;37.442;2022-12-18T02:58:28;99038.03;;;-4.63;86.79
56074;BME280;41950;55.840;37.442;2022-12-18T03:03:50;98977.19;;;-4.92;86.87
56074;BME280;41950;55.840;37.442;2022-12-18T03:06:27;99043.44;;;-4.53;86.70
56074;BME280;41950;55.840;37.442;2022-12-18T03:09:03;99031.28;;;-4.63;86.85
56074;BME280;41950;55.840;37.442;2022-12-18T03:11:33;99054.59;;;-4.46;87.01
56074;BME280;41950;55.840;37.442;2022-12-18T03:14:21;99034.75;;;-4.61;86.72
56074;BME280;41950;55.840;37.442;2022-12-18T03:16:50;99009.09;;;-4.70;86.85
56074;BME280;41950;55.840;37.442;2022-12-18T03:19:21;99045.34;;;-4.46;86.81
56074;BME280;41950;55.840;37.442;2022-12-18T03:21:52;99040.22;;;-4.47;86.52
56074;BME280;41950;55.840;37.442;2022-12-18T03:24:19;99048.53;;;-4.51;86.65
56074;BME280;41950;55.840;37.442;2022-12-18T03:26:50;99008.91;;;-4.76;86.83
56074;BME280;41950;55.840;37.442;2022-12-18T03:29:38;99052.47;;;-4.61;85.96
56074;BME280;41950;55.840;37.442;2022-12-18T03:32:15;99011.28;;;-4.81;86.75
56074;BME280;41950;55.840;37.442;2022-12-18T03:34:42;99033.38;;;-4.77;85.32
56074;BME280;41950;55.840;37.442;2022-12-18T03:37:10;99018.56;;;-4.91;86.78
56074;BME280;41950;55.840;37.442;2022-12-18T03:39:36;99074.16;;;-4.68;87.13
56074;BME280;41950;55.840;37.442;2022-12-18T03:53:36;99010.59;;;-5.02;87.63
56074;BME280;41950;55.840;37.442;2022-12-18T03:56:05;99049.97;;;-4.85;87.98
56074;BME280;41950;55.840;37.442;2022-12-18T03:58:32;99001.59;;;-5.19;87.89
56074;BME280;41950;55.840;37.442;2022-12-18T04:01:01;98995.47;;;-5.24;87.56
56074;BME280;41950;55.840;37.442;2022-12-18T04:03:31;98998.00;;;-5.24;87.74
56074;BME280;41950;55.840;37.442;2022-12-18T04:05:59;98928.88;;;-5.74;88.01
56074;BME280;41950;55.840;37.442;2022-12-18T04:08:26;99001.41;;;-5.24;88.44
56074;BME280;41950;55.840;37.442;2022-12-18T04:10:53;99038.63;;;-4.96;88.84
56074;BME280;41950;55.840;37.442;2022-12-18T04:13:23;98987.78;;;-5.28;88.46
56074;BME280;41950;55.840;37.442;2022-12-18T04:15:49;99040.13;;;-5.01;88.55
56074;BME280;41950;55.840;37.442;2022-12-18T04:18:15;99045.25;;;-5.00;88.51
56074;BME280;41950;55.840;37.442;2022-12-18T04:20:40;99050.81;;;-5.10;87.32
56074;BME280;41950;55.840;37.442;2022-12-18T04:23:06;99062.91;;;-5.01;87.44
56074;BME280;41950;55.840;37.442;2022-12-18T04:25:32;99024.06;;;-5.27;87.13
56074;BME280;41950;55.840;37.442;2022-12-18T04:27:58;98990.34;;;-5.51;87.97
56074;BME280;41950;55.840;37.442;2022-12-18T04:30:23;99039.41;;;-5.22;87.51
56074;BME280;41950;55.840;37.442;2022-12-18T04:32:49;99018.25;;;-5.48;87.46
56074;BME280;41950;55.840;37.442;2022-12-18T04:35:15;99073.09;;;-5.23;88.11
56074;BME280;41950;55.840;37.442;2022-12-18T04:37:40;98997.78;;;-5.78;87.33
56074;BME280;41950;55.840;37.442;2022-12-18T04:40:06;99037.41;;;-5.55;86.97
56074;BME280;41950;55.840;37.442;2022-12-18T04:42:32;99076.31;;;-5.28;87.00
56074;BME280;41950;55.840;37.442;2022-12-18T04:44:57;99090.03;;;-5.21;87.57
56074;BME280;41950;55.840;37.442;2022-12-18T04:47:23;99107.28;;;-5.11;88.04
56074;BME280;41950;55.840;37.442;2022-12-18T04:49:49;99125.47;;;-4.97;87.96
56074;BME280;41950;55.840;37.442;2022-12-18T04:52:14;99098.44;;;-5.22;87.06
56074;BME280;41950;55.840;37.442;2022-12-18T04:54:40;99095.19;;;-5.19;87.96
56074;BME280;41950;55.840;37.442;2022-12-18T04:57:05;99131.31;;;-4.98;87.76
56074;BME280;41950;55.840;37.442;2022-12-18T04:59:31;99086.59;;;-5.23;87.60
56074;BME280;41950;55.840;37.442;2022-12-18T05:01:56;99132.38;;;-4.93;87.46
56074;BME280;41950;55.840;37.442;2022-12-18T05:04:22;99099.75;;;-5.09;86.29
56074;BME280;41950;55.840;37.442;2022-12-18T05:06:48;99089.31;;;-5.18;87.57
56074;BME280;41950;55.840;37.442;2022-12-18T05:09:13;99099.38;;;-5.20;85.96
56074;BME280;41950;55.840;37.442;2022-12-18T05:11:39;99081.09;;;-5.35;87.37
56074;BME280;41950;55.840;37.442;2022-12-18T05:14:04;99071.47;;;-5.45;87.75
56074;BME280;41950;55.840;37.442;2022-12-18T05:16:30;99133.22;;;-5.16;87.36
56074;BME280;41950;55.840;37.442;2022-12-18T05:18:56;99113.34;;;-5.30;87.91
56074;BME280;41950;55.840;37.442;2022-12-18T05:21:21;99114.75;;;-5.38;86.55
56074;BME280;41950;55.840;37.442;2022-12-18T05:23:47;99101.88;;;-5.44;86.54
56074;BME280;41950;55.840;37.442;2022-12-18T05:26:16;99074.31;;;-5.60;87.55
56074;BME280;41950;55.840;37.442;2022-12-18T05:28:42;99140.72;;;-5.19;87.48
56074;BME280;41950;55.840;37.442;2022-12-18T05:31:09;99111.28;;;-5.40;87.27
56074;BME280;41950;55.840;37.442;2022-12-18T05:33:34;99171.50;;;-5.07;86.65
56074;BME280;41950;55.840;37.442;2022-12-18T05:36:04;99158.75;;;-5.10;85.94
56074;BME280;41950;55.840;37.442;2022-12-18T05:38:31;99173.91;;;-5.10;86.72
56074;BME280;41950;55.840;37.442;2022-12-18T05:40:57;99171.50;;;-5.30;84.32
56074;BME280;41950;55.840;37.442;2022-12-18T05:43:24;99192.09;;;-5.20;85.91
56074;BME280;41950;55.840;37.442;2022-12-18T05:45:51;99158.47;;;-5.40;86.12
56074;BME280;41950;55.840;37.442;2022-12-18T05:48:17;99167.47;;;-5.24;85.65
56074;BME280;41950;55.840;37.442;2022-12-18T05:50:44;99198.13;;;-5.17;85.51
56074;BME280;41950;55.840;37.442;2022-12-18T05:53:11;99178.81;;;-5.37;85.65
56074;BME280;41950;55.840;37.442;2022-12-18T05:55:38;99185.53;;;-5.38;85.16
56074;BME280;41950;55.840;37.442;2022-12-18T05:58:05;99172.84;;;-5.39;86.15
56074;BME280;41950;55.840;37.442;2022-12-18T06:00:32;99175.53;;;-5.35;86.49
56074;BME280;41950;55.840;37.442;2022-12-18T06:03:00;99157.19;;;-5.51;86.05
56074;BME280;41950;55.840;37.442;2022-12-18T06:05:26;99153.19;;;-5.46;86.49
56074;BME280;41950;55.840;37.442;2022-12-18T06:07:52;99204.06;;;-5.16;86.26
56074;BME280;41950;55.840;37.442;2022-12-18T06:10:17;99173.53;;;-5.43;87.09
56074;BME280;41950;55.840;37.442;2022-12-18T06:12:43;99197.16;;;-5.43;86.02
56074;BME280;41950;55.840;37.442;2022-12-18T06:15:09;99233.13;;;-5.28;86.05
56074;BME280;41950;55.840;37.442;2022-12-18T06:17:36;99219.13;;;-5.42;87.18
56074;BME280;41950;55.840;37.442;2022-12-18T06:20:03;99174.56;;;-5.81;86.96
56074;BME280;41950;55.840;37.442;2022-12-18T06:22:31;99183.69;;;-5.64;87.70
56074;BME280;41950;55.840;37.442;2022-12-18T06:24:57;99223.31;;;-5.42;87.06
56074;BME280;41950;55.840;37.442;2022-12-18T06:27:22;99202.81;;;-5.48;87.35
56074;BME280;41950;55.840;37.442;2022-12-18T06:29:48;99244.22;;;-5.24;87.05
56074;BME280;41950;55.840;37.442;2022-12-18T06:32:14;99232.91;;;-5.34;87.03
56074;BME280;41950;55.840;37.442;2022-12-18T06:34:40;99261.31;;;-5.18;86.56
56074;BME280;41950;55.840;37.442;2022-12-18T06:37:06;99250.94;;;-5.24;86.08
56074;BME280;41950;55.840;37.442;2022-12-18T06:39:32;99253.84;;;-5.15;86.56
56074;BME280;41950;55.840;37.442;2022-12-18T06:41:57;99241.41;;;-5.32;86.34
56074;BME280;41950;55.840;37.442;2022-12-18T06:44:23;99261.81;;;-5.27;84.80
56074;BME280;41950;55.840;37.442;2022-12-18T06:46:49;99271.81;;;-5.30;84.73
56074;BME280;41950;55.840;37.442;2022-12-18T06:49:15;99291.25;;;-5.29;84.52
56074;BME280;41950;55.840;37.442;2022-12-18T06:51:42;99294.75;;;-5.25;86.11
56074;BME280;41950;55.840;37.442;2022-12-18T06:54:08;99271.59;;;-5.36;85.05
56074;BME280;41950;55.840;37.442;2022-12-18T06:56:34;99260.84;;;-5.31;85.47
56074;BME280;41950;55.840;37.442;2022-12-18T06:59:00;99292.72;;;-5.13;85.56
56074;BME280;41950;55.840;37.442;2022-12-18T07:01:26;99311.69;;;-5.02;83.43
56074;BME280;41950;55.840;37.442;2022-12-18T07:03:53;99304.97;;;-5.02;84.34
56074;BME280;41950;55.840;37.442;2022-12-18T07:06:21;99291.78;;;-5.15;83.61
56074;BME280;41950;55.840;37.442;2022-12-18T07:08:48;99276.50;;;-5.18;84.69
56074;BME280;41950;55.840;37.442;2022-12-18T07:11:14;99289.38;;;-5.12;84.41
56074;BME280;41950;55.840;37.442;2022-12-18T07:13:40;99301.78;;;-4.96;83.45
56074;BME280;41950;55.840;37.442;2022-12-18T07:16:12;99330.19;;;-4.82;83.67
56074;BME280;41950;55.840;37.442;2022-12-18T07:18:38;99274.34;;;-5.30;82.47
56074;BME280;41950;55.840;37.442;2022-12-18T07:21:05;99315.50;;;-4.91;83.91
56074;BME280;41950;55.840;37.442;2022-12-18T07:23:33;99327.59;;;-4.84;83.52
56074;BME280;41950;55.840;37.442;2022-12-18T07:26:12;99294.84;;;-5.02;82.82
56074;BME280;41950;55.840;37.442;2022-12-18T07:28:40;99358.66;;;-4.65;82.89
56074;BME280;41950;55.840;37.442;2022-12-18T07:31:26;99372.47;;;-4.57;82.00
56074;BME280;41950;55.840;37.442;2022-12-18T07:33:52;99343.34;;;-4.91;81.55
56074;BME280;41950;55.840;37.442;2022-12-18T07:36:18;99379.06;;;-4.83;81.34
56074;BME280;41950;55.840;37.442;2022-12-18T07:38:47;99373.91;;;-4.86;81.39
56074;BME280;41950;55.840;37.442;2022-12-18T07:41:13;99387.88;;;-4.74;82.76
56074;BME280;41950;55.840;37.442;2022-12-18T07:43:40;99367.63;;;-4.74;82.30
56074;BME280;41950;55.840;37.442;2022-12-18T07:46:11;99357.16;;;-4.60;82.18
56074;BME280;41950;55.840;37.442;2022-12-18T07:48:40;99374.81;;;-4.40;82.01
56074;BME280;41950;55.840;37.442;2022-12-18T07:51:06;99385.47;;;-4.48;80.12
56074;BME280;41950;55.840;37.442;2022-12-18T07:53:33;99357.38;;;-4.77;80.94
56074;BME280;41950;55.840;37.442;2022-12-18T07:56:02;99380.81;;;-4.60;81.30
56074;BME280;41950;55.840;37.442;2022-12-18T07:58:29;99350.19;;;-4.66;82.10
56074;BME280;41950;55.840;37.442;2022-12-18T08:01:09;99347.66;;;-4.66;81.38
56074;BME280;41950;55.840;37.442;2022-12-18T08:03:37;99250.56;;;-5.35;81.48
56074;BME280;41950;55.840;37.442;2022-12-18T08:06:05;99374.03;;;-4.61;81.63
56074;BME280;41950;55.840;37.442;2022-12-18T08:08:32;99374.78;;;-4.63;82.53
56074;BME280;41950;55.840;37.442;2022-12-18T08:10:57;99333.34;;;-4.88;81.41
56074;BME280;41950;55.840;37.442;2022-12-18T08:13:24;99398.59;;;-4.58;81.27
56074;BME280;41950;55.840;37.442;2022-12-18T08:16:01;99392.63;;;-4.60;83.38
56074;BME280;41950;55.840;37.442;2022-12-18T08:18:27;99395.84;;;-4.64;83.10
56074;BME280;41950;55.840;37.442;2022-12-18T08:20:54;99389.13;;;-4.85;82.20
56074;BME280;41950;55.840;37.442;2022-12-18T08:23:20;99387.69;;;-4.78;83.68
56074;BME280;41950;55.840;37.442;2022-12-18T08:25:46;99423.94;;;-4.58;83.02
56074;BME280;41950;55.840;37.442;2022-12-18T08:28:14;99399.50;;;-4.79;82.09
56074;BME280;41950;55.840;37.442;2022-12-18T08:30:41;99403.28;;;-4.68;82.67
56074;BME280;41950;55.840;37.442;2022-12-18T08:33:07;99442.28;;;-4.42;82.26
56074;BME280;41950;55.840;37.442;2022-12-18T08:35:36;99360.44;;;-4.85;81.66
56074;BME280;41950;55.840;37.442;2022-12-18T08:38:02;99418.22;;;-4.53;82.65
56074;BME280;41950;55.840;37.442;2022-12-18T08:40:28;99460.66;;;-4.25;82.11
56074;BME280;41950;55.840;37.442;2022-12-18T08:42:54;99433.94;;;-4.39;82.58
56074;BME280;41950;55.840;37.442;2022-12-18T08:45:38;99428.53;;;-4.48;83.18
56074;BME280;41950;55.840;37.442;2022-12-18T08:48:04;99427.78;;;-4.46;83.38
56074;BME280;41950;55.840;37.442;2022-12-18T08:50:30;99331.66;;;-5.10;82.27
56074;BME280;41950;55.840;37.442;2022-12-18T08:52:56;99456.81;;;-4.38;82.44
56074;BME280;41950;55.840;37.442;2022-12-18T08:55:21;99330.03;;;-5.08;83.15
56074;BME280;41950;55.840;37.442;2022-12-18T08:57:50;99431.91;;;-4.48;83.23
56074;BME280;41950;55.840;37.442;2022-12-18T09:00:19;99415.75;;;-4.51;83.23
56074;BME280;41950;55.840;37.442;2022-12-18T09:02:45;99453.66;;;-4.32;83.14
56074;BME280;41950;55.840;37.442;2022-12-18T09:05:11;99446.03;;;-4.32;82.46
56074;BME280;41950;55.840;37.442;2022-12-18T09:07:39;99416.44;;;-4.55;83.51
56074;BME280;41950;55.840;37.442;2022-12-18T09:10:05;99451.00;;;-4.35;83.90
56074;BME280;41950;55.840;37.442;2022-12-18T09:12:31;99438.44;;;-4.32;83.26
56074;BME280;41950;55.840;37.442;2022-12-18T09:14:56;99448.69;;;-4.29;83.79
56074;BME280;41950;55.840;37.442;2022-12-18T09:17:22;99485.91;;;-4.06;83.04
56074;BME280;41950;55.840;37.442;2022-12-18T09:19:48;99471.88;;;-4.18;83.05
56074;BME280;41950;55.840;37.442;2022-12-18T09:22:14;99460.38;;;-4.32;82.77
56074;BME280;41950;55.840;37.442;2022-12-18T09:24:40;99473.38;;;-4.23;83.33
56074;BME280;41950;55.840;37.442;2022-12-18T09:27:05;99482.84;;;-4.19;82.71
56074;BME280;41950;55.840;37.442;2022-12-18T09:29:32;99495.56;;;-4.18;82.98
56074;BME280;41950;55.840;37.442;2022-12-18T09:31:57;99488.53;;;-4.25;82.33
56074;BME280;41950;55.840;37.442;2022-12-18T09:34:23;99488.94;;;-4.37;82.72
56074;BME280;41950;55.840;37.442;2022-12-18T09:36:50;99456.78;;;-4.60;82.25
56074;BME280;41950;55.840;37.442;2022-12-18T09:39:20;99531.03;;;-4.18;83.00
56074;BME280;41950;55.840;37.442;2022-12-18T09:41:53;99534.91;;;-4.05;82.93
56074;BME280;41950;55.840;37.442;2022-12-18T09:44:50;99551.41;;;-4.15;80.43
56074;BME280;41950;55.840;37.442;2022-12-18T09:47:37;99539.50;;;-4.17;82.65
56074;BME280;41950;55.840;37.442;2022-12-18T09:50:05;99543.59;;;-4.21;83.08
56074;BME280;41950;55.840;37.442;2022-12-18T09:52:45;99524.47;;;-4.35;82.55
56074;BME280;41950;55.840;37.442;2022-12-18T09:55:45;99526.19;;;-4.34;82.80
56074;BME280;41950;55.840;37.442;2022-12-18T10:00:57;99507.91;;;-4.48;83.60
56074;BME280;41950;55.840;37.442;2022-12-18T10:03:23;99547.50;;;-4.29;82.84
56074;BME280;41950;55.840;37.442;2022-12-18T10:06:08;99540.88;;;-4.46;81.31
56074;BME280;41950;55.840;37.442;2022-12-18T10:19:39;99528.66;;;-4.56;84.69
56074;BME280;41950;55.840;37.442;2022-12-18T10:27:24;99558.06;;;-4.60;84.58
56074;BME280;41950;55.840;37.442;2022-12-18T10:29:51;99578.13;;;-4.44;84.21
56074;BME280;41950;55.840;37.442;2022-12-18T10:32:22;99585.19;;;-4.37;84.69
56074;BME280;41950;55.840;37.442;2022-12-18T10:34:49;99578.41;;;-4.38;85.04
56074;BME280;41950;55.840;37.442;2022-12-18T10:37:21;99550.72;;;-4.54;84.28
56074;BME280;41950;55.840;37.442;2022-12-18T10:42:36;99560.66;;;-4.58;84.56
56074;BME280;41950;55.840;37.442;2022-12-18T10:45:16;99574.38;;;-4.53;84.41
56074;BME280;41950;55.840;37.442;2022-12-18T10:47:49;99550.63;;;-4.76;84.91
56074;BME280;41950;55.840;37.442;2022-12-18T10:52:58;99596.06;;;-4.60;85.24
56074;BME280;41950;55.840;37.442;2022-12-18T10:55:32;99591.00;;;-4.60;85.64
56074;BME280;41950;55.840;37.442;2022-12-18T10:58:29;99602.78;;;-4.60;85.44
56074;BME280;41950;55.840;37.442;2022-12-18T11:03:34;99610.78;;;-4.71;85.05
56074;BME280;41950;55.840;37.442;2022-12-18T11:06:11;99581.19;;;-4.92;86.15
56074;BME280;41950;55.840;37.442;2022-12-18T11:08:39;99583.13;;;-4.87;86.11
56074;BME280;41950;55.840;37.442;2022-12-18T11:11:19;99632.13;;;-4.65;85.63
56074;BME280;41950;55.840;37.442;2022-12-18T11:14:12;99632.66;;;-4.73;84.73
56074;BME280;41950;55.840;37.442;2022-12-18T11:16:46;99552.63;;;-5.09;86.49
56074;BME280;41950;55.840;37.442;2022-12-18T11:21:47;99610.59;;;-4.75;85.62
56074;BME280;41950;55.840;37.442;2022-12-18T11:27:03;99611.88;;;-4.85;85.68
56074;BME280;41950;55.840;37.442;2022-12-18T11:32:58;99616.47;;;-4.76;84.75
56074;BME280;41950;55.840;37.442;2022-12-18T11:38:12;99610.34;;;-4.81;85.75
56074;BME280;41950;55.840;37.442;2022-12-18T11:40:44;99641.47;;;-4.64;85.24
56074;BME280;41950;55.840;37.442;2022-12-18T11:43:45;99662.16;;;-4.54;84.94
56074;BME280;41950;55.840;37.442;2022-12-18T11:46:18;99641.09;;;-4.72;83.70
56074;BME280;41950;55.840;37.442;2022-12-18T11:49:00;99661.78;;;-4.63;84.55
56074;BME280;41950;55.840;37.442;2022-12-18T11:51:33;99569.69;;;-5.24;84.74
56074;BME280;41950;55.840;37.442;2022-12-18T11:54:00;99594.66;;;-5.13;84.62
56074;BME280;41950;55.840;37.442;2022-12-18T11:56:35;99566.56;;;-5.38;82.59
56074;BME280;41950;55.840;37.442;2022-12-18T12:09:55;99674.81;;;-4.73;84.27
56074;BME280;41950;55.840;37.442;2022-12-18T12:13:20;99642.31;;;-5.03;84.96
56074;BME280;41950;55.840;37.442;2022-12-18T12:18:45;99723.47;;;-4.61;84.13
56074;BME280;41950;55.840;37.442;2022-12-18T12:27:13;99724.78;;;-4.69;84.93
56074;BME280;41950;55.840;37.442;2022-12-18T12:30:07;99748.19;;;-4.55;85.02
56074;BME280;41950;55.840;37.442;2022-12-18T12:41:14;99765.72;;;-4.60;84.77
56074;BME280;41950;55.840;37.442;2022-12-18T12:44:03;99725.66;;;-4.88;85.84
56074;BME280;41950;55.840;37.442;2022-12-18T12:46:33;99786.06;;;-4.58;84.78
56074;BME280;41950;55.840;37.442;2022-12-18T12:49:03;99790.06;;;-4.63;84.85
56074;BME280;41950;55.840;37.442;2022-12-18T12:51:38;99768.44;;;-4.75;86.13
56074;BME280;41950;55.840;37.442;2022-12-18T12:54:14;99772.44;;;-4.80;84.44
56074;BME280;41950;55.840;37.442;2022-12-18T12:56:48;99779.63;;;-4.70;85.48
56074;BME280;41950;55.840;37.442;2022-12-18T13:02:31;99815.13;;;-4.50;84.82
56074;BME280;41950;55.840;37.442;2022-12-18T13:05:13;99807.84;;;-4.62;83.55
56074;BME280;41950;55.840;37.442;2022-12-18T13:10:41;99840.50;;;-4.49;85.27
56074;BME280;41950;55.840;37.442;2022-12-18T13:13:09;99805.94;;;-4.66;85.33
56074;BME280;41950;55.840;37.442;2022-12-18T13:15:50;99847.09;;;-4.52;85.60
56074;BME280;41950;55.840;37.442;2022-12-18T13:18:28;99850.97;;;-4.41;85.60
56074;BME280;41950;55.840;37.442;2022-12-18T13:23:28;99810.53;;;-4.77;86.44
56074;BME280;41950;55.840;37.442;2022-12-18T13:28:51;99870.00;;;-4.31;86.50
56074;BME280;41950;55.840;37.442;2022-12-18T13:34:21;99887.38;;;-4.39;84.05
56074;BME280;41950;55.840;37.442;2022-12-18T13:36:47;99857.06;;;-4.75;84.07
56074;BME280;41950;55.840;37.442;2022-12-18T13:41:40;99909.69;;;-4.50;85.36
56074;BME280;41950;55.840;37.442;2022-12-18T13:44:28;99914.63;;;-4.53;83.95
56074;BME280;41950;55.840;37.442;2022-12-18T13:47:45;99935.34;;;-4.61;82.96
56074;BME280;41950;55.840;37.442;2022-12-18T13:50:22;99953.63;;;-4.67;83.42
56074;BME280;41950;55.840;37.442;2022-12-18T13:52:50;99824.97;;;-5.47;83.52
56074;BME280;41950;55.840;37.442;2022-12-18T13:55:19;99893.28;;;-4.93;84.78
56074;BME280;41950;55.840;37.442;2022-12-18T13:57:45;99943.41;;;-4.69;84.38
56074;BME280;41950;55.840;37.442;2022-12-18T14:02:49;99914.34;;;-4.94;83.98
56074;BME280;41950;55.840;37.442;2022-12-18T14:05:23;99959.25;;;-4.73;84.37
56074;BME280;41950;55.840;37.442;2022-12-18T14:07:49;99966.22;;;-4.69;83.85
56074;BME280;41950;55.840;37.442;2022-12-18T14:10:15;99919.50;;;-4.93;83.08
56074;BME280;41950;55.840;37.442;2022-12-18T14:12:46;99973.19;;;-4.64;83.83
56074;BME280;41950;55.840;37.442;2022-12-18T14:15:48;99947.56;;;-4.88;83.29
56074;BME280;41950;55.840;37.442;2022-12-18T14:18:48;99803.88;;;-5.81;82.89
56074;BME280;41950;55.840;37.442;2022-12-18T14:21:27;99963.28;;;-4.94;83.05
56074;BME280;41950;55.840;37.442;2022-12-18T14:24:22;99998.97;;;-4.89;82.01
56074;BME280;41950;55.840;37.442;2022-12-18T14:26:50;99944.34;;;-5.20;83.04
56074;BME280;41950;55.840;37.442;2022-12-18T14:29:30;100010.13;;;-4.86;83.82
56074;BME280;41950;55.840;37.442;2022-12-18T14:32:13;100007.13;;;-4.95;81.62
56074;BME280;41950;55.840;37.442;2022-12-18T14:34:41;99929.09;;;-5.38;83.86
56074;BME280;41950;55.840;37.442;2022-12-18T14:37:10;100009.56;;;-4.97;83.03
56074;BME280;41950;55.840;37.442;2022-12-18T14:39:36;99988.59;;;-5.12;83.42
56074;BME280;41950;55.840;37.442;2022-12-18T14:42:02;99995.59;;;-5.06;82.95
56074;BME280;41950;55.840;37.442;2022-12-18T14:44:31;100002.09;;;-5.11;82.95
56074;BME280;41950;55.840;37.442;2022-12-18T14:46:57;99970.09;;;-5.27;84.01
56074;BME280;41950;55.840;37.442;2022-12-18T14:49:33;100030.53;;;-4.99;82.88
56074;BME280;41950;55.840;37.442;2022-12-18T14:52:06;99930.41;;;-5.62;83.60
56074;BME280;41950;55.840;37.442;2022-12-18T14:54:33;99929.44;;;-5.80;82.61
56074;BME280;41950;55.840;37.442;2022-12-18T14:59:44;100027.66;;;-5.23;83.78
56074;BME280;41950;55.840;37.442;2022-12-18T15:02:20;100060.75;;;-5.02;83.92
56074;BME280;41950;55.840;37.442;2022-12-18T15:04:47;100052.72;;;-5.11;83.33
56074;BME280;41950;55.840;37.442;2022-12-18T15:07:18;100055.25;;;-5.11;83.35
56074;BME280;41950;55.840;37.442;2022-12-18T15:10:03;100055.41;;;-5.08;83.68